Hub


Voltar

 INFORMAÇÕES METEOROLÓGICAS

METAR FOR KLWC


ADDS - METARS form results

(2020 UTC 17 January 2019)
Data provider http://aviationweather.gov/metar/data/
 
METAR text: KLWC 171952Z AUTO 34006KT 5SM BR OVC008 02/M01 A3011 RMK AO2 CIG 006V013 SLP203 T00171006
Conditions at: KLWC (LAWRENCE , KS, US) observed 1952 UTC 17 January 2019
Temperature: 1.7°C (35°F)
Dewpoint: -0.6°C (31°F) [RH = 85%]
Pressure (altimeter): 30.11 inches Hg (1019.7 mb)
[Sea-level pressure: 1020.3 mb]
Winds: from the NNW (340 degrees) at 7 MPH (6 knots; 3.1 m/s)
Visibility: 5 miles ( 8 km)
Ceiling: 800 feet AGL
Clouds: overcast cloud deck at 800 feet AGL
Weather: BR  (mist)


 MAPA DO AEROPORTO


 INFORMAÇÕES DA PISTA

Pista 01 Tamanho da pista 3901 ft Largura da pista 75 ft
Elevação da pista 832 ft Ranhura da pista 0 ft Proa da pista 19
Pista 19 Tamanho da pista 3901 ft Largura da pista 75 ft
Elevação da pista 830 ft Ranhura da pista 0 ft Proa da pista 199
Pista 15 Tamanho da pista 5700 ft Largura da pista 100 ft
Elevação da pista 831 ft Ranhura da pista 0 ft Proa da pista 153
Pista 33 Tamanho da pista 5700 ft Largura da pista 100 ft
Elevação da pista 827 ft Ranhura da pista 0 ft Proa da pista 333

 FREQUÊNCIAS DO AEROPORTO

Tipo ASOS Nome ASOS Frequência 121.225 MHZ
Tipo CLD Nome CLNC DEL Frequência 121.825 MHZ
Tipo CNTR Nome KANSAS CIT Frequência 123.8 MHZ
Tipo UNIC Nome CTAF/UNICO Frequência 123 MHZ

 AUXÍLIOS DE NAVEGAÇÃO PRÓXIMOS AO AEROPORTO